Terminal Aerodrome Forecast
Issued by NWS

Home | Current Version | Previous Version | Text Only | Print | Product List | Glossary On
Versions: 1 2 3 4 5 6 7 8 9 10 11 12 13 14 15 16 17 18 19 20
000
FTUS43 KAPX 290315 AAA
TAFMBL
TAF AMD
KMBL 290315Z 2903/2924 14007KT 6SM -SN OVC019
     FM290800 14006KT 6SM BR OVC012
     FM291700 17007KT 6SM BR OVC012
      AMD LTD TO CLD VIS AND WIND=

USA.gov is the U.S. government's official web portal to all federal, state and local government web resources and services.